sensor_id;sensor_type;location;lat;lon;timestamp;P1;durP1;ratioP1;P2;durP2;ratioP2
21107;SDS011;10712;52.944;9.098;2023-01-19T00:00:18;14.80;;;11.38;;
21107;SDS011;10712;52.944;9.098;2023-01-19T00:02:45;17.70;;;12.00;;
21107;SDS011;10712;52.944;9.098;2023-01-19T00:05:11;19.58;;;12.85;;
21107;SDS011;10712;52.944;9.098;2023-01-19T00:07:38;15.98;;;11.77;;
21107;SDS011;10712;52.944;9.098;2023-01-19T00:10:05;13.57;;;10.27;;
21107;SDS011;10712;52.944;9.098;2023-01-19T00:12:32;15.10;;;12.27;;
21107;SDS011;10712;52.944;9.098;2023-01-19T00:14:57;20.13;;;12.35;;
21107;SDS011;10712;52.944;9.098;2023-01-19T00:17:23;18.38;;;11.95;;
21107;SDS011;10712;52.944;9.098;2023-01-19T00:19:49;16.23;;;12.70;;
21107;SDS011;10712;52.944;9.098;2023-01-19T00:22:14;15.05;;;11.60;;
21107;SDS011;10712;52.944;9.098;2023-01-19T00:24:40;18.50;;;12.00;;
21107;SDS011;10712;52.944;9.098;2023-01-19T00:27:06;14.90;;;12.45;;
21107;SDS011;10712;52.944;9.098;2023-01-19T00:29:32;20.80;;;11.65;;
21107;SDS011;10712;52.944;9.098;2023-01-19T00:32:02;17.85;;;12.18;;
21107;SDS011;10712;52.944;9.098;2023-01-19T00:34:29;12.55;;;10.52;;
21107;SDS011;10712;52.944;9.098;2023-01-19T00:37:10;17.02;;;12.27;;
21107;SDS011;10712;52.944;9.098;2023-01-19T00:39:36;17.70;;;12.77;;
21107;SDS011;10712;52.944;9.098;2023-01-19T00:42:02;16.30;;;11.68;;
21107;SDS011;10712;52.944;9.098;2023-01-19T00:44:53;16.88;;;12.60;;
21107;SDS011;10712;52.944;9.098;2023-01-19T00:47:19;18.90;;;12.10;;
21107;SDS011;10712;52.944;9.098;2023-01-19T00:49:45;20.25;;;13.00;;
21107;SDS011;10712;52.944;9.098;2023-01-19T00:52:11;15.50;;;12.30;;
21107;SDS011;10712;52.944;9.098;2023-01-19T00:54:37;18.38;;;12.50;;
21107;SDS011;10712;52.944;9.098;2023-01-19T00:57:02;13.63;;;11.68;;
21107;SDS011;10712;52.944;9.098;2023-01-19T00:59:28;20.52;;;13.90;;
21107;SDS011;10712;52.944;9.098;2023-01-19T01:01:54;16.60;;;13.80;;
21107;SDS011;10712;52.944;9.098;2023-01-19T01:04:20;14.75;;;12.30;;
21107;SDS011;10712;52.944;9.098;2023-01-19T01:06:46;16.02;;;12.35;;
21107;SDS011;10712;52.944;9.098;2023-01-19T01:09:12;21.80;;;12.48;;
21107;SDS011;10712;52.944;9.098;2023-01-19T01:11:38;17.38;;;12.40;;
21107;SDS011;10712;52.944;9.098;2023-01-19T01:14:05;16.20;;;12.30;;
21107;SDS011;10712;52.944;9.098;2023-01-19T01:16:32;21.50;;;13.27;;
21107;SDS011;10712;52.944;9.098;2023-01-19T01:18:57;17.25;;;12.52;;
21107;SDS011;10712;52.944;9.098;2023-01-19T01:21:23;19.27;;;13.27;;
21107;SDS011;10712;52.944;9.098;2023-01-19T01:23:49;13.65;;;12.18;;
21107;SDS011;10712;52.944;9.098;2023-01-19T01:26:15;14.50;;;11.98;;
21107;SDS011;10712;52.944;9.098;2023-01-19T01:28:40;16.02;;;13.50;;
21107;SDS011;10712;52.944;9.098;2023-01-19T01:31:06;16.13;;;12.52;;
21107;SDS011;10712;52.944;9.098;2023-01-19T01:33:32;15.65;;;12.57;;
21107;SDS011;10712;52.944;9.098;2023-01-19T01:35:58;15.48;;;12.90;;
21107;SDS011;10712;52.944;9.098;2023-01-19T01:38:23;17.13;;;12.30;;
21107;SDS011;10712;52.944;9.098;2023-01-19T01:40:49;17.67;;;12.10;;
21107;SDS011;10712;52.944;9.098;2023-01-19T01:43:16;17.73;;;12.07;;
21107;SDS011;10712;52.944;9.098;2023-01-19T01:45:44;15.80;;;12.18;;
21107;SDS011;10712;52.944;9.098;2023-01-19T01:48:20;15.43;;;13.30;;
21107;SDS011;10712;52.944;9.098;2023-01-19T01:50:53;18.25;;;12.93;;
21107;SDS011;10712;52.944;9.098;2023-01-19T01:56:16;17.73;;;12.40;;
21107;SDS011;10712;52.944;9.098;2023-01-19T01:58:49;15.65;;;12.35;;
21107;SDS011;10712;52.944;9.098;2023-01-19T02:01:15;17.50;;;11.90;;
21107;SDS011;10712;52.944;9.098;2023-01-19T02:03:59;13.30;;;11.93;;
21107;SDS011;10712;52.944;9.098;2023-01-19T02:06:25;18.83;;;12.73;;
21107;SDS011;10712;52.944;9.098;2023-01-19T02:08:52;21.27;;;13.38;;
21107;SDS011;10712;52.944;9.098;2023-01-19T02:11:45;19.45;;;12.35;;
21107;SDS011;10712;52.944;9.098;2023-01-19T02:14:30;17.05;;;13.07;;
21107;SDS011;10712;52.944;9.098;2023-01-19T02:16:56;16.27;;;12.98;;
21107;SDS011;10712;52.944;9.098;2023-01-19T02:19:26;19.90;;;13.18;;
21107;SDS011;10712;52.944;9.098;2023-01-19T02:22:08;20.83;;;12.87;;
21107;SDS011;10712;52.944;9.098;2023-01-19T02:24:43;15.68;;;12.15;;
21107;SDS011;10712;52.944;9.098;2023-01-19T02:27:10;16.98;;;13.40;;
21107;SDS011;10712;52.944;9.098;2023-01-19T02:29:36;16.90;;;14.02;;
21107;SDS011;10712;52.944;9.098;2023-01-19T02:32:04;19.45;;;12.63;;
21107;SDS011;10712;52.944;9.098;2023-01-19T02:34:30;21.02;;;13.32;;
21107;SDS011;10712;52.944;9.098;2023-01-19T02:37:00;19.20;;;14.55;;
21107;SDS011;10712;52.944;9.098;2023-01-19T02:39:35;18.63;;;13.17;;
21107;SDS011;10712;52.944;9.098;2023-01-19T02:42:13;20.40;;;14.15;;
21107;SDS011;10712;52.944;9.098;2023-01-19T02:44:46;22.00;;;14.88;;
21107;SDS011;10712;52.944;9.098;2023-01-19T02:47:16;22.35;;;13.90;;
21107;SDS011;10712;52.944;9.098;2023-01-19T02:49:42;19.67;;;14.40;;
21107;SDS011;10712;52.944;9.098;2023-01-19T02:52:13;21.00;;;14.52;;
21107;SDS011;10712;52.944;9.098;2023-01-19T02:57:52;16.52;;;12.50;;
21107;SDS011;10712;52.944;9.098;2023-01-19T03:03:53;18.73;;;14.13;;
21107;SDS011;10712;52.944;9.098;2023-01-19T03:06:45;23.90;;;14.55;;
21107;SDS011;10712;52.944;9.098;2023-01-19T03:12:24;20.77;;;14.60;;
21107;SDS011;10712;52.944;9.098;2023-01-19T03:15:08;18.85;;;15.20;;
21107;SDS011;10712;52.944;9.098;2023-01-19T03:17:47;20.10;;;14.17;;
21107;SDS011;10712;52.944;9.098;2023-01-19T03:20:16;17.55;;;14.32;;
21107;SDS011;10712;52.944;9.098;2023-01-19T03:22:49;19.52;;;15.05;;
21107;SDS011;10712;52.944;9.098;2023-01-19T03:25:22;15.57;;;13.90;;
21107;SDS011;10712;52.944;9.098;2023-01-19T03:27:50;20.10;;;14.68;;
21107;SDS011;10712;52.944;9.098;2023-01-19T03:30:23;17.25;;;14.10;;
21107;SDS011;10712;52.944;9.098;2023-01-19T03:32:59;19.23;;;13.88;;
21107;SDS011;10712;52.944;9.098;2023-01-19T03:35:34;19.90;;;14.25;;
21107;SDS011;10712;52.944;9.098;2023-01-19T03:38:08;19.27;;;14.77;;
21107;SDS011;10712;52.944;9.098;2023-01-19T03:40:45;17.45;;;13.70;;
21107;SDS011;10712;52.944;9.098;2023-01-19T03:43:14;17.02;;;13.63;;
21107;SDS011;10712;52.944;9.098;2023-01-19T03:45:42;20.08;;;15.20;;
21107;SDS011;10712;52.944;9.098;2023-01-19T03:48:09;19.92;;;14.70;;
21107;SDS011;10712;52.944;9.098;2023-01-19T03:50:36;19.63;;;15.32;;
21107;SDS011;10712;52.944;9.098;2023-01-19T03:53:09;22.05;;;15.18;;
21107;SDS011;10712;52.944;9.098;2023-01-19T03:55:41;19.27;;;13.60;;
21107;SDS011;10712;52.944;9.098;2023-01-19T03:58:11;20.17;;;14.82;;
21107;SDS011;10712;52.944;9.098;2023-01-19T04:00:38;23.38;;;16.20;;
21107;SDS011;10712;52.944;9.098;2023-01-19T04:03:04;19.25;;;15.77;;
21107;SDS011;10712;52.944;9.098;2023-01-19T04:05:37;21.42;;;15.10;;
21107;SDS011;10712;52.944;9.098;2023-01-19T04:08:03;19.80;;;16.17;;
21107;SDS011;10712;52.944;9.098;2023-01-19T04:10:30;24.92;;;16.50;;
21107;SDS011;10712;52.944;9.098;2023-01-19T04:12:56;20.25;;;16.17;;
21107;SDS011;10712;52.944;9.098;2023-01-19T04:15:23;21.13;;;16.52;;
21107;SDS011;10712;52.944;9.098;2023-01-19T04:17:50;21.73;;;16.45;;
21107;SDS011;10712;52.944;9.098;2023-01-19T04:20:16;19.10;;;15.45;;
21107;SDS011;10712;52.944;9.098;2023-01-19T04:22:42;23.15;;;17.08;;
21107;SDS011;10712;52.944;9.098;2023-01-19T04:25:08;20.63;;;16.38;;
21107;SDS011;10712;52.944;9.098;2023-01-19T04:27:35;20.50;;;16.98;;
21107;SDS011;10712;52.944;9.098;2023-01-19T04:30:01;25.27;;;16.75;;
21107;SDS011;10712;52.944;9.098;2023-01-19T04:32:28;24.58;;;17.90;;
21107;SDS011;10712;52.944;9.098;2023-01-19T04:34:56;22.55;;;16.50;;
21107;SDS011;10712;52.944;9.098;2023-01-19T04:37:23;21.20;;;16.40;;
21107;SDS011;10712;52.944;9.098;2023-01-19T04:39:49;18.25;;;15.05;;
21107;SDS011;10712;52.944;9.098;2023-01-19T04:42:15;20.73;;;16.65;;
21107;SDS011;10712;52.944;9.098;2023-01-19T04:44:41;21.77;;;17.05;;
21107;SDS011;10712;52.944;9.098;2023-01-19T04:47:07;22.17;;;17.95;;
21107;SDS011;10712;52.944;9.098;2023-01-19T04:49:33;23.17;;;17.52;;
21107;SDS011;10712;52.944;9.098;2023-01-19T04:52:02;21.48;;;17.13;;
21107;SDS011;10712;52.944;9.098;2023-01-19T04:54:30;22.63;;;17.88;;
21107;SDS011;10712;52.944;9.098;2023-01-19T04:56:57;22.90;;;16.98;;
21107;SDS011;10712;52.944;9.098;2023-01-19T04:59:22;24.88;;;18.17;;
21107;SDS011;10712;52.944;9.098;2023-01-19T05:01:48;21.00;;;17.10;;
21107;SDS011;10712;52.944;9.098;2023-01-19T05:04:14;25.63;;;18.60;;
21107;SDS011;10712;52.944;9.098;2023-01-19T05:06:40;21.27;;;17.08;;
21107;SDS011;10712;52.944;9.098;2023-01-19T05:09:06;26.63;;;18.90;;
21107;SDS011;10712;52.944;9.098;2023-01-19T05:11:33;21.73;;;17.73;;
21107;SDS011;10712;52.944;9.098;2023-01-19T05:14:00;26.02;;;20.13;;
21107;SDS011;10712;52.944;9.098;2023-01-19T05:16:26;25.65;;;20.40;;
21107;SDS011;10712;52.944;9.098;2023-01-19T05:18:51;27.77;;;20.02;;
21107;SDS011;10712;52.944;9.098;2023-01-19T05:21:17;23.70;;;18.30;;
21107;SDS011;10712;52.944;9.098;2023-01-19T05:23:43;24.45;;;18.50;;
21107;SDS011;10712;52.944;9.098;2023-01-19T05:26:09;23.33;;;19.00;;
21107;SDS011;10712;52.944;9.098;2023-01-19T05:28:35;27.77;;;21.00;;
21107;SDS011;10712;52.944;9.098;2023-01-19T05:31:02;24.00;;;19.23;;
21107;SDS011;10712;52.944;9.098;2023-01-19T05:33:28;26.45;;;19.38;;
21107;SDS011;10712;52.944;9.098;2023-01-19T05:35:54;25.27;;;18.65;;
21107;SDS011;10712;52.944;9.098;2023-01-19T05:38:20;23.50;;;18.65;;
21107;SDS011;10712;52.944;9.098;2023-01-19T05:40:46;25.60;;;20.67;;
21107;SDS011;10712;52.944;9.098;2023-01-19T05:43:12;24.02;;;18.45;;
21107;SDS011;10712;52.944;9.098;2023-01-19T05:45:39;26.27;;;20.77;;
21107;SDS011;10712;52.944;9.098;2023-01-19T05:48:05;27.02;;;20.30;;
21107;SDS011;10712;52.944;9.098;2023-01-19T05:50:33;25.42;;;19.60;;
21107;SDS011;10712;52.944;9.098;2023-01-19T05:53:00;26.63;;;21.00;;
21107;SDS011;10712;52.944;9.098;2023-01-19T05:55:27;25.17;;;19.95;;
21107;SDS011;10712;52.944;9.098;2023-01-19T05:57:53;27.85;;;20.90;;
21107;SDS011;10712;52.944;9.098;2023-01-19T06:00:19;24.58;;;20.63;;
21107;SDS011;10712;52.944;9.098;2023-01-19T06:02:45;27.65;;;20.27;;
21107;SDS011;10712;52.944;9.098;2023-01-19T06:05:13;29.30;;;20.33;;
21107;SDS011;10712;52.944;9.098;2023-01-19T06:07:39;25.48;;;19.60;;
21107;SDS011;10712;52.944;9.098;2023-01-19T06:10:05;25.92;;;20.35;;
21107;SDS011;10712;52.944;9.098;2023-01-19T06:12:32;22.55;;;19.35;;
21107;SDS011;10712;52.944;9.098;2023-01-19T06:14:58;24.25;;;19.08;;
21107;SDS011;10712;52.944;9.098;2023-01-19T06:17:23;24.48;;;19.48;;
21107;SDS011;10712;52.944;9.098;2023-01-19T06:19:49;26.20;;;18.95;;
21107;SDS011;10712;52.944;9.098;2023-01-19T06:22:15;24.02;;;18.13;;
21107;SDS011;10712;52.944;9.098;2023-01-19T06:24:41;23.25;;;17.65;;
21107;SDS011;10712;52.944;9.098;2023-01-19T06:27:06;22.65;;;18.63;;
21107;SDS011;10712;52.944;9.098;2023-01-19T06:29:32;24.80;;;17.63;;
21107;SDS011;10712;52.944;9.098;2023-01-19T06:31:58;21.13;;;17.00;;
21107;SDS011;10712;52.944;9.098;2023-01-19T06:34:24;24.38;;;18.15;;
21107;SDS011;10712;52.944;9.098;2023-01-19T06:36:55;26.08;;;19.20;;
21107;SDS011;10712;52.944;9.098;2023-01-19T06:39:21;24.02;;;17.60;;
21107;SDS011;10712;52.944;9.098;2023-01-19T06:41:48;23.23;;;19.05;;
21107;SDS011;10712;52.944;9.098;2023-01-19T06:44:14;23.73;;;17.02;;
21107;SDS011;10712;52.944;9.098;2023-01-19T06:46:40;21.00;;;17.85;;
21107;SDS011;10712;52.944;9.098;2023-01-19T06:49:06;21.80;;;17.75;;
21107;SDS011;10712;52.944;9.098;2023-01-19T06:51:32;25.60;;;17.73;;
21107;SDS011;10712;52.944;9.098;2023-01-19T06:53:58;23.30;;;17.67;;
21107;SDS011;10712;52.944;9.098;2023-01-19T06:56:24;25.20;;;17.20;;
21107;SDS011;10712;52.944;9.098;2023-01-19T06:58:49;23.60;;;17.02;;
21107;SDS011;10712;52.944;9.098;2023-01-19T07:01:17;20.58;;;17.25;;
21107;SDS011;10712;52.944;9.098;2023-01-19T07:03:43;20.88;;;16.88;;
21107;SDS011;10712;52.944;9.098;2023-01-19T07:06:09;23.08;;;17.40;;
21107;SDS011;10712;52.944;9.098;2023-01-19T07:08:36;21.13;;;17.58;;
21107;SDS011;10712;52.944;9.098;2023-01-19T07:11:07;23.50;;;17.77;;
21107;SDS011;10712;52.944;9.098;2023-01-19T07:13:36;20.55;;;16.15;;
21107;SDS011;10712;52.944;9.098;2023-01-19T07:16:07;23.80;;;17.05;;
21107;SDS011;10712;52.944;9.098;2023-01-19T07:18:36;22.08;;;15.57;;
21107;SDS011;10712;52.944;9.098;2023-01-19T07:21:03;24.65;;;17.63;;
21107;SDS011;10712;52.944;9.098;2023-01-19T07:23:30;24.42;;;17.63;;
21107;SDS011;10712;52.944;9.098;2023-01-19T07:25:57;23.08;;;17.92;;
21107;SDS011;10712;52.944;9.098;2023-01-19T07:28:28;22.65;;;18.13;;
21107;SDS011;10712;52.944;9.098;2023-01-19T07:30:55;22.92;;;18.88;;
21107;SDS011;10712;52.944;9.098;2023-01-19T07:33:21;26.75;;;19.88;;
21107;SDS011;10712;52.944;9.098;2023-01-19T07:35:49;32.30;;;22.70;;
21107;SDS011;10712;52.944;9.098;2023-01-19T07:38:16;27.08;;;19.67;;
21107;SDS011;10712;52.944;9.098;2023-01-19T07:40:43;20.90;;;17.65;;
21107;SDS011;10712;52.944;9.098;2023-01-19T07:43:11;22.00;;;16.75;;
21107;SDS011;10712;52.944;9.098;2023-01-19T07:45:37;22.48;;;17.63;;
21107;SDS011;10712;52.944;9.098;2023-01-19T07:48:03;21.15;;;16.58;;
21107;SDS011;10712;52.944;9.098;2023-01-19T07:50:30;21.17;;;16.63;;
21107;SDS011;10712;52.944;9.098;2023-01-19T07:52:56;20.45;;;16.30;;
21107;SDS011;10712;52.944;9.098;2023-01-19T07:57:53;20.25;;;15.52;;
21107;SDS011;10712;52.944;9.098;2023-01-19T08:00:19;19.55;;;16.88;;
21107;SDS011;10712;52.944;9.098;2023-01-19T08:02:49;21.85;;;17.33;;
21107;SDS011;10712;52.944;9.098;2023-01-19T08:05:16;23.52;;;17.98;;
21107;SDS011;10712;52.944;9.098;2023-01-19T08:07:43;19.92;;;16.10;;
21107;SDS011;10712;52.944;9.098;2023-01-19T08:10:13;22.63;;;18.40;;
21107;SDS011;10712;52.944;9.098;2023-01-19T08:15:08;24.08;;;17.33;;
21107;SDS011;10712;52.944;9.098;2023-01-19T08:17:34;22.48;;;18.38;;
21107;SDS011;10712;52.944;9.098;2023-01-19T08:20:01;32.80;;;24.10;;
21107;SDS011;10712;52.944;9.098;2023-01-19T08:22:26;26.08;;;18.73;;
21107;SDS011;10712;52.944;9.098;2023-01-19T08:24:52;23.40;;;17.02;;
21107;SDS011;10712;52.944;9.098;2023-01-19T08:27:19;18.83;;;16.20;;
21107;SDS011;10712;52.944;9.098;2023-01-19T08:29:45;22.15;;;17.80;;
21107;SDS011;10712;52.944;9.098;2023-01-19T08:32:11;20.35;;;16.50;;
21107;SDS011;10712;52.944;9.098;2023-01-19T08:34:37;23.33;;;17.50;;
21107;SDS011;10712;52.944;9.098;2023-01-19T08:37:02;20.75;;;17.70;;
21107;SDS011;10712;52.944;9.098;2023-01-19T08:39:28;22.58;;;18.15;;
21107;SDS011;10712;52.944;9.098;2023-01-19T08:41:54;20.23;;;16.15;;
21107;SDS011;10712;52.944;9.098;2023-01-19T08:44:20;23.75;;;17.38;;
21107;SDS011;10712;52.944;9.098;2023-01-19T08:46:46;23.77;;;17.08;;
21107;SDS011;10712;52.944;9.098;2023-01-19T08:49:12;19.88;;;17.08;;
21107;SDS011;10712;52.944;9.098;2023-01-19T08:51:38;18.77;;;15.75;;
21107;SDS011;10712;52.944;9.098;2023-01-19T08:54:04;18.88;;;15.82;;
21107;SDS011;10712;52.944;9.098;2023-01-19T08:56:29;20.60;;;17.00;;
21107;SDS011;10712;52.944;9.098;2023-01-19T08:58:55;21.67;;;16.73;;
21107;SDS011;10712;52.944;9.098;2023-01-19T09:01:21;19.30;;;15.35;;
21107;SDS011;10712;52.944;9.098;2023-01-19T09:03:48;18.48;;;15.85;;
21107;SDS011;10712;52.944;9.098;2023-01-19T09:06:14;18.25;;;15.20;;
21107;SDS011;10712;52.944;9.098;2023-01-19T09:08:42;25.58;;;16.02;;
21107;SDS011;10712;52.944;9.098;2023-01-19T09:11:09;21.50;;;16.45;;
21107;SDS011;10712;52.944;9.098;2023-01-19T09:13:36;21.13;;;17.08;;
21107;SDS011;10712;52.944;9.098;2023-01-19T09:16:03;22.85;;;17.40;;
21107;SDS011;10712;52.944;9.098;2023-01-19T09:18:31;22.48;;;16.40;;
21107;SDS011;10712;52.944;9.098;2023-01-19T09:20:58;19.45;;;16.15;;
21107;SDS011;10712;52.944;9.098;2023-01-19T09:23:25;20.55;;;17.08;;
21107;SDS011;10712;52.944;9.098;2023-01-19T09:25:59;27.27;;;17.92;;
21107;SDS011;10712;52.944;9.098;2023-01-19T09:28:27;20.98;;;17.25;;
21107;SDS011;10712;52.944;9.098;2023-01-19T09:30:53;20.20;;;17.15;;
21107;SDS011;10712;52.944;9.098;2023-01-19T09:33:20;33.58;;;24.75;;
21107;SDS011;10712;52.944;9.098;2023-01-19T09:35:46;25.60;;;19.20;;
21107;SDS011;10712;52.944;9.098;2023-01-19T09:38:15;20.95;;;16.70;;
21107;SDS011;10712;52.944;9.098;2023-01-19T09:40:49;18.13;;;15.32;;
21107;SDS011;10712;52.944;9.098;2023-01-19T09:46:14;40.90;;;27.08;;
21107;SDS011;10712;52.944;9.098;2023-01-19T09:48:54;31.48;;;20.65;;
21107;SDS011;10712;52.944;9.098;2023-01-19T09:51:32;30.90;;;21.67;;
21107;SDS011;10712;52.944;9.098;2023-01-19T09:54:11;24.20;;;18.70;;
21107;SDS011;10712;52.944;9.098;2023-01-19T09:56:41;20.10;;;16.60;;
21107;SDS011;10712;52.944;9.098;2023-01-19T09:59:17;18.45;;;16.42;;
21107;SDS011;10712;52.944;9.098;2023-01-19T10:02:06;18.75;;;15.48;;
21107;SDS011;10712;52.944;9.098;2023-01-19T10:04:53;16.50;;;13.35;;
21107;SDS011;10712;52.944;9.098;2023-01-19T10:07:49;21.27;;;17.30;;
21107;SDS011;10712;52.944;9.098;2023-01-19T10:10:33;22.30;;;19.13;;
21107;SDS011;10712;52.944;9.098;2023-01-19T10:21:47;23.30;;;15.98;;
21107;SDS011;10712;52.944;9.098;2023-01-19T10:24:25;20.98;;;14.38;;
21107;SDS011;10712;52.944;9.098;2023-01-19T10:27:00;19.90;;;16.65;;
21107;SDS011;10712;52.944;9.098;2023-01-19T10:29:31;22.48;;;16.60;;
21107;SDS011;10712;52.944;9.098;2023-01-19T10:34:36;43.67;;;30.08;;
21107;SDS011;10712;52.944;9.098;2023-01-19T10:37:24;33.33;;;26.35;;
21107;SDS011;10712;52.944;9.098;2023-01-19T10:40:12;25.15;;;19.73;;
21107;SDS011;10712;52.944;9.098;2023-01-19T10:45:58;19.90;;;14.63;;
21107;SDS011;10712;52.944;9.098;2023-01-19T10:48:49;17.23;;;14.23;;
21107;SDS011;10712;52.944;9.098;2023-01-19T10:51:18;19.65;;;15.13;;
21107;SDS011;10712;52.944;9.098;2023-01-19T10:53:52;19.88;;;17.70;;
21107;SDS011;10712;52.944;9.098;2023-01-19T10:56:26;17.83;;;15.52;;
21107;SDS011;10712;52.944;9.098;2023-01-19T10:59:00;17.48;;;14.07;;
21107;SDS011;10712;52.944;9.098;2023-01-19T11:01:29;15.38;;;13.75;;
21107;SDS011;10712;52.944;9.098;2023-01-19T11:03:59;15.48;;;12.32;;
21107;SDS011;10712;52.944;9.098;2023-01-19T11:06:43;15.32;;;13.32;;
21107;SDS011;10712;52.944;9.098;2023-01-19T11:09:19;15.55;;;12.40;;
21107;SDS011;10712;52.944;9.098;2023-01-19T11:11:49;15.55;;;12.93;;
21107;SDS011;10712;52.944;9.098;2023-01-19T11:14:18;18.35;;;15.50;;
21107;SDS011;10712;52.944;9.098;2023-01-19T11:16:48;33.97;;;24.40;;
21107;SDS011;10712;52.944;9.098;2023-01-19T11:19:24;107.15;;;72.78;;
21107;SDS011;10712;52.944;9.098;2023-01-19T11:22:14;47.67;;;35.38;;
21107;SDS011;10712;52.944;9.098;2023-01-19T11:24:46;105.47;;;79.57;;
21107;SDS011;10712;52.944;9.098;2023-01-19T11:27:17;35.22;;;26.25;;
21107;SDS011;10712;52.944;9.098;2023-01-19T11:29:49;52.58;;;38.88;;
21107;SDS011;10712;52.944;9.098;2023-01-19T11:32:25;86.25;;;54.88;;
21107;SDS011;10712;52.944;9.098;2023-01-19T11:34:52;109.43;;;70.57;;
21107;SDS011;10712;52.944;9.098;2023-01-19T11:39:44;23.10;;;19.30;;
21107;SDS011;10712;52.944;9.098;2023-01-19T11:42:13;19.77;;;17.20;;
21107;SDS011;10712;52.944;9.098;2023-01-19T11:44:50;17.40;;;15.70;;
21107;SDS011;10712;52.944;9.098;2023-01-19T11:53:06;13.93;;;11.57;;
21107;SDS011;10712;52.944;9.098;2023-01-19T11:58:32;16.83;;;12.63;;
21107;SDS011;10712;52.944;9.098;2023-01-19T12:04:20;16.27;;;12.40;;
21107;SDS011;10712;52.944;9.098;2023-01-19T12:06:55;14.85;;;12.05;;
21107;SDS011;10712;52.944;9.098;2023-01-19T12:09:28;17.75;;;12.38;;
21107;SDS011;10712;52.944;9.098;2023-01-19T12:17:46;11.00;;;9.75;;
21107;SDS011;10712;52.944;9.098;2023-01-19T12:23:10;11.85;;;10.18;;
21107;SDS011;10712;52.944;9.098;2023-01-19T12:28:51;22.10;;;17.23;;
21107;SDS011;10712;52.944;9.098;2023-01-19T12:31:21;16.70;;;11.70;;
21107;SDS011;10712;52.944;9.098;2023-01-19T12:33:47;12.70;;;10.65;;
21107;SDS011;10712;52.944;9.098;2023-01-19T12:39:01;17.27;;;9.88;;
21107;SDS011;10712;52.944;9.098;2023-01-19T12:41:40;16.30;;;9.77;;
21107;SDS011;10712;52.944;9.098;2023-01-19T12:49:25;8.95;;;7.90;;
21107;SDS011;10712;52.944;9.098;2023-01-19T12:57:58;17.15;;;7.93;;
21107;SDS011;10712;52.944;9.098;2023-01-19T13:00:34;31.58;;;23.95;;
21107;SDS011;10712;52.944;9.098;2023-01-19T13:18:54;16.13;;;10.02;;
21107;SDS011;10712;52.944;9.098;2023-01-19T13:21:43;10.90;;;7.10;;
21107;SDS011;10712;52.944;9.098;2023-01-19T13:24:16;8.38;;;6.70;;
21107;SDS011;10712;52.944;9.098;2023-01-19T13:32:14;8.68;;;5.07;;
21107;SDS011;10712;52.944;9.098;2023-01-19T13:34:53;10.70;;;5.05;;
21107;SDS011;10712;52.944;9.098;2023-01-19T13:37:23;9.55;;;5.38;;
21107;SDS011;10712;52.944;9.098;2023-01-19T13:39:58;20.00;;;11.23;;
21107;SDS011;10712;52.944;9.098;2023-01-19T13:45:25;11.98;;;6.20;;
21107;SDS011;10712;52.944;9.098;2023-01-19T13:47:58;15.88;;;7.75;;
21107;SDS011;10712;52.944;9.098;2023-01-19T13:50:29;15.85;;;7.63;;
21107;SDS011;10712;52.944;9.098;2023-01-19T13:52:59;10.75;;;7.47;;
21107;SDS011;10712;52.944;9.098;2023-01-19T13:55:27;15.93;;;11.07;;
21107;SDS011;10712;52.944;9.098;2023-01-19T13:57:55;19.40;;;9.13;;
21107;SDS011;10712;52.944;9.098;2023-01-19T14:00:22;30.23;;;13.15;;
21107;SDS011;10712;52.944;9.098;2023-01-19T14:03:01;55.28;;;26.90;;
21107;SDS011;10712;52.944;9.098;2023-01-19T14:05:47;17.80;;;8.48;;
21107;SDS011;10712;52.944;9.098;2023-01-19T14:08:16;7.97;;;3.33;;
21107;SDS011;10712;52.944;9.098;2023-01-19T14:10:48;11.82;;;3.05;;
21107;SDS011;10712;52.944;9.098;2023-01-19T14:13:27;8.38;;;3.17;;
21107;SDS011;10712;52.944;9.098;2023-01-19T14:16:05;9.10;;;2.95;;
21107;SDS011;10712;52.944;9.098;2023-01-19T14:18:39;7.07;;;2.10;;
21107;SDS011;10712;52.944;9.098;2023-01-19T14:21:06;9.38;;;2.13;;
21107;SDS011;10712;52.944;9.098;2023-01-19T14:23:50;11.60;;;1.92;;
21107;SDS011;10712;52.944;9.098;2023-01-19T14:34:28;9.55;;;2.10;;
21107;SDS011;10712;52.944;9.098;2023-01-19T14:39:45;11.52;;;4.72;;
21107;SDS011;10712;52.944;9.098;2023-01-19T14:42:25;14.18;;;3.90;;
21107;SDS011;10712;52.944;9.098;2023-01-19T14:44:57;22.70;;;7.00;;
21107;SDS011;10712;52.944;9.098;2023-01-19T14:47:37;8.20;;;2.25;;
21107;SDS011;10712;52.944;9.098;2023-01-19T14:52:49;7.85;;;2.75;;
21107;SDS011;10712;52.944;9.098;2023-01-19T14:55:44;7.85;;;3.45;;
21107;SDS011;10712;52.944;9.098;2023-01-19T14:58:21;31.67;;;20.55;;
21107;SDS011;10712;52.944;9.098;2023-01-19T15:00:49;19.90;;;11.48;;
21107;SDS011;10712;52.944;9.098;2023-01-19T15:03:20;26.67;;;19.02;;
21107;SDS011;10712;52.944;9.098;2023-01-19T15:05:46;15.68;;;10.40;;
21107;SDS011;10712;52.944;9.098;2023-01-19T15:08:15;15.85;;;10.52;;
21107;SDS011;10712;52.944;9.098;2023-01-19T15:10:52;17.05;;;8.70;;
21107;SDS011;10712;52.944;9.098;2023-01-19T15:13:22;9.35;;;5.82;;
21107;SDS011;10712;52.944;9.098;2023-01-19T15:15:51;8.05;;;4.32;;
21107;SDS011;10712;52.944;9.098;2023-01-19T15:18:18;14.80;;;10.20;;
21107;SDS011;10712;52.944;9.098;2023-01-19T15:20:50;12.35;;;6.53;;
21107;SDS011;10712;52.944;9.098;2023-01-19T15:23:16;78.82;;;33.55;;
21107;SDS011;10712;52.944;9.098;2023-01-19T15:25:42;38.55;;;16.52;;
21107;SDS011;10712;52.944;9.098;2023-01-19T15:28:16;24.20;;;9.98;;
21107;SDS011;10712;52.944;9.098;2023-01-19T15:30:43;18.00;;;7.95;;
21107;SDS011;10712;52.944;9.098;2023-01-19T15:33:19;14.07;;;5.97;;
21107;SDS011;10712;52.944;9.098;2023-01-19T15:35:48;7.78;;;4.20;;
21107;SDS011;10712;52.944;9.098;2023-01-19T15:38:14;8.63;;;3.20;;
21107;SDS011;10712;52.944;9.098;2023-01-19T15:40:40;7.38;;;2.85;;
21107;SDS011;10712;52.944;9.098;2023-01-19T15:43:08;9.15;;;3.03;;
21107;SDS011;10712;52.944;9.098;2023-01-19T15:45:40;5.43;;;2.67;;
21107;SDS011;10712;52.944;9.098;2023-01-19T15:48:18;8.95;;;2.75;;
21107;SDS011;10712;52.944;9.098;2023-01-19T15:50:46;3.95;;;2.20;;
21107;SDS011;10712;52.944;9.098;2023-01-19T15:53:13;8.32;;;2.22;;
21107;SDS011;10712;52.944;9.098;2023-01-19T15:55:42;6.97;;;1.80;;
21107;SDS011;10712;52.944;9.098;2023-01-19T15:58:08;4.70;;;1.90;;
21107;SDS011;10712;52.944;9.098;2023-01-19T16:00:37;15.77;;;2.92;;
21107;SDS011;10712;52.944;9.098;2023-01-19T16:03:03;6.82;;;1.65;;
21107;SDS011;10712;52.944;9.098;2023-01-19T16:05:29;4.75;;;1.13;;
21107;SDS011;10712;52.944;9.098;2023-01-19T16:07:55;8.25;;;1.73;;
21107;SDS011;10712;52.944;9.098;2023-01-19T16:10:22;4.13;;;1.58;;
21107;SDS011;10712;52.944;9.098;2023-01-19T16:12:48;8.63;;;5.00;;
21107;SDS011;10712;52.944;9.098;2023-01-19T16:15:14;4.50;;;3.20;;
21107;SDS011;10712;52.944;9.098;2023-01-19T16:17:42;7.55;;;2.95;;
21107;SDS011;10712;52.944;9.098;2023-01-19T16:20:09;10.98;;;6.22;;
21107;SDS011;10712;52.944;9.098;2023-01-19T16:22:36;18.52;;;12.23;;
21107;SDS011;10712;52.944;9.098;2023-01-19T16:25:02;22.52;;;12.52;;
21107;SDS011;10712;52.944;9.098;2023-01-19T16:27:29;12.82;;;5.88;;
21107;SDS011;10712;52.944;9.098;2023-01-19T16:29:54;10.43;;;5.97;;
21107;SDS011;10712;52.944;9.098;2023-01-19T16:32:21;8.32;;;3.97;;